Latest Weather Observations for Thredbo Top Station

IDN60901

Issued at 4:01 pm EST Monday 27 May 2019 (issued every 10 minutes, with the page automatically refreshed every 10 minutes)

About weather observations | Map of Canberra area stations | Latest observations for Canberra area | Other Formats
Station Details ID: 071032 Name: THREDBO AWS Lat: -36.49 Lon: 148.29 Height: 1957.0 m
Data from the previous 72 hours. | See also: Recent months at Thredbo Top Station
Date/Time
EST
Temp
°C
App
Temp
°C
Dew
Point
°C
Rel
Hum
%
Delta-T
°C
Wind Press
QNH
hPa
Press
MSL
hPa
Rain since
9am
mm
Dir  Spd
km/h
Gust
km/h
Spd
kts
Gust
kts
27/04:00pm -4.6 -17.1 -5.0 97 -0.1 WNW 52 76 28 41 - - 1.2
27/03:30pm -4.5 -17.9 -4.9 97 -0.1 NW 57 80 31 43 - - 1.2
27/03:00pm -4.7 -16.1 -5.1 97 -0.1 NW 46 65 25 35 - - 1.2
27/02:33pm -4.6 -17.1 -5.0 97 -0.1 NW 52 70 28 38 - - 1.2
27/02:30pm -4.7 -17.6 -5.1 97 -0.1 WNW 54 70 29 38 - - 1.2
27/02:00pm -4.9 -16.3 -5.3 97 -0.1 WNW 46 69 25 37 - - 1.0
27/01:30pm -4.9 -17.0 -5.3 97 -0.1 NW 50 72 27 39 - - 1.0
27/01:09pm -4.9 -14.9 -5.3 97 -0.1 WNW 39 61 21 33 - - 1.0
27/01:00pm -4.9 -14.9 -5.3 97 -0.1 WNW 39 56 21 30 - - 1.0
27/12:33pm -5.2 -15.7 -5.6 97 -0.1 NW 41 61 22 33 - - 0.8
27/12:30pm -5.0 -15.8 -5.4 97 -0.1 WNW 43 57 23 31 - - 0.8
27/12:04pm -5.3 -16.2 -5.7 97 -0.1 NW 43 61 23 33 - - 0.8
27/12:00pm -5.3 -16.3 -5.7 97 -0.1 NW 44 61 24 33 - - 0.8
27/11:37am -5.0 -15.1 -5.4 97 -0.1 NW 39 57 21 31 - - 0.4
27/11:30am -5.0 -14.3 -5.4 97 -0.1 NW 35 52 19 28 - - 0.4
27/11:00am -5.2 -16.0 -5.6 97 -0.1 WNW 43 69 23 37 - - 0.4
27/10:34am -5.4 -14.7 -5.8 97 -0.1 WNW 35 54 19 29 - - 0.2
27/10:30am -5.5 -15.6 -5.9 97 -0.1 NW 39 54 21 29 - - 0.2
27/10:00am -5.3 -13.7 -5.7 97 -0.1 WNW 30 52 16 28 - - 0.2
27/09:30am -5.7 -15.1 -6.1 97 -0.1 WNW 35 56 19 30 - - 0.2
27/09:00am -5.1 -14.0 -5.5 97 -0.1 WNW 33 52 18 28 - - 6.6
27/08:47am -4.8 -13.7 -5.2 97 -0.1 WNW 33 54 18 29 - - 6.6
27/08:43am -4.7 -12.6 -5.1 97 -0.1 WNW 28 46 15 25 - - 6.4
27/08:30am -4.7 -14.0 -5.1 97 -0.1 WNW 35 50 19 27 - - 6.2
27/08:07am -4.7 -13.4 -5.1 97 -0.1 NW 32 52 17 28 - - 6.0
27/08:00am -4.8 -12.7 -5.2 97 -0.1 WNW 28 43 15 23 - - 6.0
27/07:42am -5.0 -13.9 -5.4 97 -0.1 WNW 33 52 18 28 - - 6.0
27/07:30am -5.2 -14.1 -5.6 97 -0.1 WNW 33 50 18 27 - - 6.0
27/07:00am -5.2 -14.5 -5.6 97 -0.1 WNW 35 54 19 29 - - 6.0
27/06:50am -5.2 -14.1 -5.6 97 -0.1 WNW 33 57 18 31 - - 6.0
27/06:30am -4.5 -13.7 -4.9 97 -0.1 W 35 56 19 30 - - 5.6
27/06:03am -3.6 -13.9 -4.0 97 0.0 W 41 59 22 32 - - 5.0
27/06:00am -3.5 -13.8 -3.9 97 0.0 W 41 57 22 31 - - 4.8
27/05:40am -2.5 -13.2 -2.9 97 0.0 WNW 44 72 24 39 - - 4.2
27/05:36am -2.2 -14.0 -2.6 97 0.0 NW 50 72 27 39 - - 4.0
27/05:30am -1.4 -13.5 -1.7 98 0.0 NW 52 76 28 41 - - 3.8
27/05:25am -1.4 -14.5 -1.8 97 0.1 NW 57 76 31 41 - - 3.6
27/05:08am -1.4 -16.0 -1.7 98 0.0 NW 65 83 35 45 - - 3.2
27/05:00am -1.4 -16.3 -1.7 98 0.0 NNW 67 83 36 45 - - 3.0
27/04:30am -1.2 -14.6 -1.5 98 0.1 NW 59 91 32 49 - - 2.2
27/04:00am -1.3 -14.7 -1.6 98 0.0 NNW 59 87 32 47 - - 1.4
27/03:31am -1.5 -16.1 -1.8 98 0.0 NNW 65 87 35 47 - - 1.0
27/03:30am -1.5 -16.1 -1.8 98 0.0 NNW 65 82 35 44 - - 1.0
27/03:05am -1.6 -14.7 -1.9 98 0.0 NNW 57 76 31 41 - - 0.6
27/03:00am -1.7 -15.5 -2.0 98 0.0 NNW 61 76 33 41 - - 0.6
27/02:30am -1.8 -13.2 -2.2 97 0.1 NNW 48 69 26 37 - - 0.4
27/02:00am -2.1 -14.7 -2.4 98 0.0 NNW 54 78 29 42 - - 0.0
27/01:35am -2.1 -15.0 -2.4 98 0.0 NNW 56 74 30 40 - - 0.0
27/01:30am -2.1 -15.2 -2.4 98 0.0 NNW 57 74 31 40 - - 0.0
27/01:00am -2.2 -15.7 -2.6 97 0.0 NW 59 85 32 46 - - 0.0
27/12:30am -2.3 -15.5 -2.7 97 0.0 NNW 57 76 31 41 - - 0.0
27/12:03am -2.5 -17.2 -2.9 97 0.0 NW 65 87 35 47 - - 0.0
27/12:00am -2.5 -17.2 -2.9 97 0.0 NW 65 82 35 44 - - 0.0
 
Date/Time
EST
Temp
°C
App
Temp
°C
Dew
Point
°C
Rel
Hum
%
Delta-T
°C
Wind Press
QNH
hPa
Press
MSL
hPa
Rain since
9am
mm
Dir  Spd
km/h
Gust
km/h
Spd
kts
Gust
kts
26/11:36pm -2.4 -17.1 -2.8 97 0.0 NW 65 83 35 45 - - 0.0
26/11:30pm -2.4 -17.5 -2.8 97 0.0 NW 67 83 36 45 - - 0.0
26/11:00pm -2.6 -18.3 -3.0 97 0.0 NW 70 96 38 52 - - 0.0
26/10:30pm -2.9 -19.0 -3.3 97 0.0 NW 72 95 39 51 - - 0.0
26/10:00pm -2.8 -18.5 -3.1 98 0.0 NW 70 89 38 48 - - 0.0
26/09:30pm -2.8 -17.9 -3.2 97 0.0 NW 67 85 36 46 - - 0.0
26/09:00pm -2.6 -17.3 -3.0 97 0.0 NW 65 83 35 45 - - 0.0
26/08:30pm -3.1 -18.8 -3.5 97 0.0 NW 70 89 38 48 - - 0.0
26/08:02pm -2.9 -16.9 -3.3 97 0.0 NW 61 80 33 43 - - 0.0
26/08:00pm -2.9 -17.3 -3.3 97 0.0 NW 63 80 34 43 - - 0.0
26/07:30pm -2.9 -18.4 -3.3 97 0.0 NW 69 87 37 47 - - 0.0
26/07:00pm -2.5 -17.2 -2.9 97 0.0 NW 65 83 35 45 - - 0.0
26/06:40pm -2.7 -18.2 -3.1 97 0.0 NW 69 89 37 48 - - 0.0
26/06:30pm -2.8 -17.9 -3.2 97 0.0 NW 67 80 36 43 - - 0.0
26/06:05pm -2.7 -16.7 -3.1 97 0.0 NW 61 80 33 43 - - 0.0
26/06:00pm -2.6 -16.6 -3.0 97 0.0 NW 61 76 33 41 - - 0.0
26/05:54pm -2.6 -16.6 -3.0 97 0.0 NW 61 80 33 43 - - 0.0
26/05:30pm -2.7 -17.4 -3.1 97 0.0 NW 65 78 35 42 - - 0.0
26/05:00pm -2.5 -17.2 -2.9 97 0.0 NW 65 80 35 43 - - 0.0
26/04:30pm -2.2 -16.9 -2.7 96 0.1 NW 65 80 35 43 - - 0.0
26/04:00pm -2.1 -17.2 -3.2 92 0.3 NW 67 82 36 44 - - 0.0
26/03:40pm -1.8 -16.4 -2.2 97 0.1 NW 65 83 35 45 - - 0.0
26/03:30pm -1.9 -16.5 -2.3 97 0.1 NW 65 80 35 43 - - 0.0
26/03:00pm -1.6 -15.1 -2.4 94 0.2 NW 59 72 32 39 - - 0.0
26/02:30pm -1.5 -16.1 -2.2 95 0.2 NW 65 78 35 42 - - 0.0
26/02:00pm -0.7 -13.7 -2.9 85 0.8 NW 56 78 30 42 - - 0.0
26/01:36pm -1.3 -14.8 -1.9 96 0.2 NW 59 78 32 42 - - 0.0
26/01:30pm -1.1 -14.6 -1.9 94 0.3 NW 59 76 32 41 - - 0.0
26/01:06pm -0.7 -12.5 -2.0 91 0.5 NW 50 69 27 37 - - 0.0
26/01:00pm -0.9 -12.6 -1.3 97 0.1 NW 50 65 27 35 - - 0.0
26/12:30pm -1.0 -12.7 -1.4 97 0.1 NW 50 70 27 38 - - 0.0
26/12:00pm -0.6 -13.1 -2.0 90 0.5 NW 54 76 29 41 - - 0.0
26/11:54am -0.9 -12.2 -1.3 97 0.1 NW 48 69 26 37 - - 0.0
26/11:51am -1.3 -13.4 -1.7 97 0.1 NW 52 72 28 39 - - 0.0
26/11:45am -1.3 -15.1 -1.7 97 0.1 NW 61 82 33 44 - - 0.0
26/11:39am -1.2 -14.2 -1.6 97 0.1 NW 57 82 31 44 - - 0.0
26/11:30am -1.3 -12.6 -1.7 97 0.1 NW 48 70 26 38 - - 0.0
26/11:27am -1.1 -12.0 -1.5 97 0.1 NW 46 70 25 38 - - 0.0
26/11:00am -1.5 -12.5 -1.9 97 0.1 NW 46 59 25 32 - - 0.0
26/10:30am -1.9 -13.7 -2.3 97 0.1 NW 50 72 27 39 - - 0.0
26/10:13am -1.5 -12.9 -1.9 97 0.1 NW 48 67 26 36 - - 0.0
26/10:00am -1.2 -13.7 -2.0 94 0.2 NW 54 69 29 37 - - 0.0
26/09:30am -1.3 -13.0 -1.9 96 0.2 NW 50 69 27 37 - - 0.0
26/09:24am -1.0 -12.8 -2.7 88 0.6 NW 50 69 27 37 - - 0.0
26/09:00am -1.9 -13.3 -2.3 97 0.1 WNW 48 63 26 34 - - 17.2
26/08:32am -1.5 -12.9 -1.9 97 0.1 NW 48 67 26 36 - - 17.2
26/08:30am -1.6 -13.7 -2.0 97 0.1 WNW 52 67 28 36 - - 17.2
26/08:04am -1.6 -11.3 -2.0 97 0.1 NW 39 57 21 31 - - 17.2
26/08:00am -1.6 -11.6 -2.0 97 0.1 NW 41 57 22 31 - - 17.2
26/07:46am -1.4 -9.0 -1.8 97 0.1 WNW 28 50 15 27 - - 17.2
26/07:30am -1.4 -8.2 -1.8 97 0.1 NW 24 41 13 22 - - 17.2
26/07:09am -1.5 -9.1 -1.9 97 0.1 NW 28 46 15 25 - - 17.2
26/07:00am -1.2 -8.7 -1.6 97 0.1 NW 28 43 15 23 - - 17.2
26/06:30am -0.6 -9.8 -1.0 97 0.1 NW 37 61 20 33 - - 17.2
26/06:00am -0.9 -12.9 -1.3 97 0.1 NW 52 78 28 42 - - 17.2
26/05:32am 0.0 -10.8 -0.4 97 0.2 NW 46 74 25 40 - - 17.0
26/05:30am 0.0 -10.8 -0.4 97 0.2 WNW 46 63 25 34 - - 17.0
26/05:00am -0.3 -10.6 -0.7 97 0.1 NW 43 65 23 35 - - 16.8
26/04:32am 0.0 -9.5 -0.4 97 0.2 NW 39 57 21 31 - - 16.8
26/04:30am 0.1 -9.3 -0.3 97 0.2 NW 39 54 21 29 - - 16.8
26/04:10am 0.3 -8.0 -0.1 97 0.2 WNW 33 57 18 31 - - 16.8
26/04:00am 0.1 -6.9 -0.3 97 0.2 W 26 41 14 22 - - 16.4
26/03:35am 0.2 -10.2 -0.2 97 0.2 WNW 44 69 24 37 - - 16.2
26/03:30am 1.2 -9.4 0.8 97 0.2 NW 46 69 25 37 - - 16.2
26/03:00am 1.3 -10.0 0.9 97 0.2 NW 50 76 27 41 - - 16.0
26/02:30am 1.6 -9.7 1.3 98 0.1 WNW 50 76 27 41 - - 16.0
26/02:00am 1.9 -9.7 1.6 98 0.1 WNW 52 74 28 40 - - 16.0
26/01:54am 2.1 -8.7 1.8 98 0.1 WNW 48 74 26 40 - - 16.0
26/01:52am 2.1 -8.0 1.8 98 0.1 WNW 44 74 24 40 - - 16.0
26/01:30am 2.3 -6.4 2.0 98 0.1 NW 37 59 20 32 - - 16.0
26/01:00am 1.8 -8.1 1.5 98 0.1 NW 43 61 23 33 - - 14.0
26/12:54am 1.6 -8.5 1.3 98 0.1 NW 44 61 24 33 - - 12.6
26/12:47am 2.1 -10.2 1.8 98 0.1 NNW 56 76 30 41 - - 11.2
26/12:30am 1.9 -11.0 1.6 98 0.1 NW 59 96 32 52 - - 11.0
26/12:26am 1.7 -9.9 1.4 98 0.1 NW 52 72 28 39 - - 10.6
26/12:19am 2.1 -9.9 1.8 98 0.1 NW 54 83 29 45 - - 9.8
26/12:00am 3.1 -10.8 2.8 98 0.1 NW 65 89 35 48 - - 7.2
 
Date/Time
EST
Temp
°C
App
Temp
°C
Dew
Point
°C
Rel
Hum
%
Delta-T
°C
Wind Press
QNH
hPa
Press
MSL
hPa
Rain since
9am
mm
Dir  Spd
km/h
Gust
km/h
Spd
kts
Gust
kts
25/11:30pm 3.3 -11.3 3.0 98 0.1 NNW 69 95 37 51 - - 6.4
25/11:00pm 3.5 -11.6 3.2 98 0.1 NNW 72 98 39 53 - - 6.2
25/10:30pm 3.5 -9.9 3.2 98 0.1 NW 63 89 34 48 - - 6.2
25/10:00pm 3.3 -9.4 3.0 98 0.1 NW 59 102 32 55 - - 6.0
25/09:53pm 2.7 -9.5 2.4 98 0.1 NW 56 102 30 55 - - 5.8
25/09:45pm 3.1 -7.9 2.8 98 0.1 NW 50 83 27 45 - - 4.8
25/09:44pm 3.1 -7.9 2.8 98 0.1 NW 50 82 27 44 - - 4.6
25/09:40pm 3.4 -9.3 3.1 98 0.1 NW 59 83 32 45 - - 4.2
25/09:30pm 3.3 -10.9 3.0 98 0.1 NW 67 89 36 48 - - 4.2
25/09:26pm 3.1 -10.4 2.8 98 0.1 NW 63 87 34 47 - - 4.2
25/09:24pm 3.1 -9.6 2.8 98 0.1 NW 59 83 32 45 - - 4.2
25/09:18pm 2.7 -8.8 2.4 98 0.1 NW 52 87 28 47 - - 4.2
25/09:14pm 3.2 -9.5 2.9 98 0.1 NW 59 104 32 56 - - 3.4
25/09:12pm 3.0 -10.9 2.7 98 0.1 NW 65 104 35 56 - - 3.4
25/09:00pm 3.7 -10.8 3.4 98 0.1 NW 69 87 37 47 - - 2.2
25/08:30pm 3.8 -10.9 3.5 98 0.1 NW 70 93 38 50 - - 2.2
25/08:00pm 3.8 -9.6 3.5 98 0.1 NNW 63 87 34 47 - - 2.2
25/07:30pm 4.0 -10.5 3.7 98 0.1 NW 69 89 37 48 - - 2.2
25/07:00pm 4.0 -9.7 3.7 98 0.1 NW 65 83 35 45 - - 2.2
25/06:47pm 4.2 -8.3 3.9 98 0.1 NNW 59 85 32 46 - - 2.2
25/06:45pm 4.0 -8.2 3.7 98 0.1 NNW 57 85 31 46 - - 2.2
25/06:30pm 4.0 -6.9 3.7 98 0.1 NW 50 70 27 38 1014.3 1013.8 2.2
25/06:20pm 4.1 -8.1 3.8 98 0.1 NW 57 95 31 51 1014.3 1013.8 2.2
25/06:00pm 3.8 -10.7 3.5 98 0.1 NW 69 87 37 47 - - 2.0
25/05:35pm 4.1 -10.6 3.8 98 0.1 NW 70 89 38 48 - - 2.0
25/05:30pm 4.0 -11.1 3.7 98 0.1 NNW 72 89 39 48 - - 2.0
25/05:00pm 4.0 -10.1 3.7 98 0.1 NW 67 100 36 54 - - 1.6
25/04:30pm 4.0 -9.7 3.7 98 0.1 NW 65 89 35 48 - - 0.4
25/04:00pm 4.0 -10.1 3.7 98 0.1 NW 67 95 36 51 - - 0.4
25/03:57pm 3.9 -8.7 3.6 98 0.1 NW 59 85 32 46 - - 0.4
25/03:53pm 4.1 -8.1 3.8 98 0.1 NW 57 91 31 49 1014.4 1013.9 0.4
25/03:49pm 4.2 -7.8 3.9 98 0.1 NW 56 91 30 49 1014.8 1014.3 0.2
25/03:30pm 4.0 -10.7 3.7 98 0.1 NW 70 89 38 48 - - 0.2
25/03:00pm 3.8 -10.0 3.5 98 0.1 NW 65 85 35 46 - - 0.2
25/02:30pm 3.8 -11.3 3.5 98 0.1 NW 72 91 39 49 - - 0.0
25/02:00pm 3.8 -10.3 3.5 98 0.1 NW 67 85 36 46 1014.3 1013.8 0.0
25/01:30pm 3.7 -11.0 3.4 98 0.1 NW 70 95 38 51 - - 0.0
25/01:00pm 3.8 -10.9 3.5 98 0.1 NW 70 91 38 49 1014.9 1014.4 0.0
25/12:30pm 3.7 -10.8 3.4 98 0.1 NW 69 91 37 49 1015.0 1014.5 0.0
25/12:12pm 3.8 -11.7 3.5 98 0.1 NW 74 93 40 50 1014.7 1014.2 0.0
25/12:00pm 3.6 -11.9 3.3 98 0.1 NW 74 91 40 49 1015.1 1014.7 0.0
25/11:30am 3.8 -12.4 3.5 98 0.1 NW 78 98 42 53 1015.0 1014.5 0.0
25/11:00am 3.8 -13.2 3.5 98 0.1 NW 82 102 44 55 1015.0 1014.5 0.0
25/10:30am 3.7 -11.4 3.4 98 0.1 NW 72 93 39 50 1015.9 1015.4 0.0
25/10:00am 3.5 -11.6 3.2 98 0.1 NW 72 98 39 53 1015.9 1015.4 0.0
25/09:30am 3.6 -11.9 3.3 98 0.1 NW 74 96 40 52 1016.1 1015.7 0.0
25/09:00am 3.8 -12.8 3.5 98 0.1 NW 80 100 43 54 1016.2 1015.8 6.4
25/08:30am 3.9 -10.8 3.6 98 0.1 NW 70 96 38 52 1015.7 1015.3 6.4
25/08:00am 3.2 -9.1 2.9 98 0.1 NW 57 80 31 43 1017.8 1017.5 6.4
25/07:30am 3.4 -8.3 3.1 98 0.1 NW 54 78 29 42 1018.8 1018.5 6.2
25/07:15am 3.2 -7.4 2.9 98 0.1 NW 48 83 26 45 1017.7 1017.3 6.0
25/07:08am 3.0 -8.4 2.7 98 0.1 NW 52 70 28 38 1018.2 1017.8 5.6
25/07:00am 3.0 -10.5 2.7 98 0.1 NW 63 85 34 46 1018.2 1017.8 5.4
25/06:30am 3.7 -10.1 3.4 98 0.1 NW 65 85 35 46 1017.8 1017.5 4.8
25/06:00am 3.4 -10.8 3.1 98 0.1 NW 67 85 36 46 1017.7 1017.3 4.8
25/05:36am 3.8 -10.7 3.5 98 0.1 NW 69 89 37 48 1017.1 1016.7 4.2
25/05:30am 3.5 -10.7 3.2 98 0.1 NW 67 83 36 45 1017.3 1016.9 4.2
25/05:00am 4.2 -10.4 3.9 98 0.1 NW 70 89 38 48 1017.6 1017.2 4.2
25/04:30am 3.7 -12.2 3.4 98 0.1 NW 76 100 41 54 1016.7 1016.3 3.4
25/04:00am 4.1 -9.6 3.8 98 0.1 NW 65 83 35 45 1016.8 1016.4 3.0
25/03:30am 4.8 -10.9 4.4 97 0.2 NW 76 104 41 56 1017.3 1016.9 2.8
25/03:00am 4.6 -12.3 4.2 97 0.2 NW 82 102 44 55 1016.4 1015.9 2.8
25/02:30am 4.3 -12.2 3.9 97 0.2 NW 80 100 43 54 1017.1 1016.7 2.8
25/02:00am 4.2 -12.0 3.9 98 0.1 NW 78 98 42 53 1017.0 1016.6 2.8
25/01:59am 4.3 -11.8 4.0 98 0.1 NW 78 96 42 52 1016.7 1016.3 2.8
25/01:30am 4.4 -10.6 4.1 98 0.1 NNW 72 93 39 50 1019.0 1018.7 2.8
25/01:00am 4.3 -10.1 4.0 98 0.1 NW 69 91 37 49 1018.9 1018.6 2.8
25/12:30am 4.5 -9.1 4.2 98 0.1 NW 65 83 35 45 1019.4 1019.1 2.8
25/12:01am 4.7 -8.1 4.3 97 0.2 NW 61 80 33 43 1019.7 1019.5 2.8
25/12:00am 4.6 -8.3 4.2 97 0.2 NW 61 78 33 42 1020.0 1019.7 2.8
 
Date/Time
EST
Temp
°C
App
Temp
°C
Dew
Point
°C
Rel
Hum
%
Delta-T
°C
Wind Press
QNH
hPa
Press
MSL
hPa
Rain since
9am
mm
Dir  Spd
km/h
Gust
km/h
Spd
kts
Gust
kts
24/11:36pm 4.4 -8.1 4.1 98 0.1 NW 59 78 32 42 1020.5 1020.2 2.8
24/11:30pm 4.3 -8.6 4.0 98 0.1 NW 61 76 33 41 1020.4 1020.1 2.8
24/11:00pm 4.2 -8.7 3.9 98 0.1 NW 61 76 33 41 1020.5 1020.2 2.8
24/10:30pm 4.2 -8.7 3.9 98 0.1 NW 61 74 33 40 1020.6 1020.4 2.8
24/10:00pm 4.1 -8.5 3.8 98 0.1 NW 59 70 32 38 1020.8 1020.6 2.8
24/09:30pm 4.1 -7.9 3.8 98 0.1 NW 56 67 30 36 1021.0 1020.7 2.8
24/09:00pm 3.6 -8.1 3.3 98 0.1 NW 54 65 29 35 1021.2 1021.0 2.8
24/08:30pm 3.5 -7.1 3.2 98 0.1 NW 48 61 26 33 1021.6 1021.4 2.8
24/08:00pm 3.6 -5.3 3.3 98 0.1 NW 39 56 21 30 1022.3 1022.1 2.8
24/07:58pm 3.6 -4.9 3.3 98 0.1 NW 37 56 20 30 1022.4 1022.3 2.8
24/07:30pm 4.0 -3.5 3.6 97 0.2 NW 32 48 17 26 1022.7 1022.5 2.8
24/07:06pm 4.7 -1.9 4.0 95 0.3 NW 28 48 15 26 1022.9 1022.8 2.8
24/07:00pm 4.5 -2.5 3.9 96 0.3 NW 30 46 16 25 1022.9 1022.8 2.8
24/06:30pm 4.3 -4.1 3.9 97 0.2 NW 37 56 20 30 1022.8 1022.6 2.8
24/06:00pm 4.1 -5.6 3.7 97 0.2 NW 44 69 24 37 1022.7 1022.5 2.8
24/05:45pm 4.3 -5.2 3.9 97 0.2 NW 43 67 23 36 1022.2 1022.0 2.8
24/05:30pm 3.9 -5.3 3.6 98 0.1 NW 41 56 22 30 1022.3 1022.1 2.8
24/05:00pm 3.6 -6.6 3.3 98 0.1 NW 46 61 25 33 1021.9 1021.8 2.8
24/04:39pm 4.0 -6.5 3.7 98 0.1 NW 48 67 26 36 1021.9 1021.8 2.8
24/04:30pm 4.0 -6.9 3.7 98 0.1 NW 50 67 27 36 1021.8 1021.6 2.8
24/04:18pm 4.0 -6.9 3.7 98 0.1 NW 50 69 27 37 1021.8 1021.6 2.8

Latest Capital City Observations: Canberra | Sydney | Melbourne | Brisbane | Adelaide | Perth | Hobart | Darwin

Other formats

Comma delimited format used in spreadsheet applications
http://www.bom.gov.au/fwo/IDN60903/IDN60903.95909.axf

JavaScript Object Notation format (JSON) in row-major order
http://www.bom.gov.au/fwo/IDN60903/IDN60903.95909.json

Data quality

Most of these data are generated automatically and are frequently updated. Quality checks on data are not normally performed. It is possible for incorrect values to appear. Refer to information at About Latest Weather Observations and please check the disclaimer before using these data.